Time;durP1;ratioP1;P1;durP2;ratioP2;P2;SDS_P1;SDS_P2;PMS_P1;PMS_P2;Temp;Humidity;BMP_temperature;BMP_pressure;BME280_temperature;BME280_humidity;BME280_pressure;Samples;Min_cycle;Max_cycle;Signal;HPM_P1;HPM_P2
2023/07/15 00:00:58;;;;;;;6.13;3.30;;;;;;;24.98;49.44;101191.31;6305140;22;20420;-77
2023/07/15 00:03:23;;;;;;;6.80;3.50;;;;;;;24.84;49.94;101201.72;6305142;22;20342;-76
2023/07/15 00:05:49;;;;;;;5.53;3.45;;;;;;;24.85;49.90;101199.81;6305317;22;20358;-77
2023/07/15 00:08:15;;;;;;;6.30;3.27;;;;;;;24.91;49.68;101191.50;6305406;22;20349;-76
2023/07/15 00:10:45;;;;;;;7.78;3.80;;;;;;;24.93;49.65;101192.06;6305225;22;20334;-77
2023/07/15 00:13:18;;;;;;;7.35;3.88;;;;;;;24.90;49.61;101192.59;6304451;22;20762;-76
2023/07/15 00:15:47;;;;;;;7.43;3.80;;;;;;;24.89;49.25;101188.22;6296030;22;20334;-76
2023/07/15 00:18:14;;;;;;;7.13;3.70;;;;;;;24.84;49.88;101190.06;6295534;22;20338;-77
2023/07/15 00:20:44;;;;;;;11.90;4.15;;;;;;;24.79;49.94;101183.53;6294781;22;20918;-76
2023/07/15 00:23:18;;;;;;;10.93;4.30;;;;;;;24.70;50.31;101193.16;6293652;22;20403;-76
2023/07/15 00:25:44;;;;;;;9.95;4.10;;;;;;;24.63;50.48;101200.66;6294733;22;20456;-76
2023/07/15 00:28:10;;;;;;;9.38;4.30;;;;;;;24.56;50.39;101198.16;6293170;22;20342;-76
2023/07/15 00:30:35;;;;;;;7.95;4.00;;;;;;;24.50;50.75;101199.09;6294347;22;20492;-76
2023/07/15 00:33:01;;;;;;;9.25;3.92;;;;;;;24.41;51.27;101196.00;6294559;22;20330;-76
2023/07/15 00:35:31;;;;;;;9.52;4.30;;;;;;;24.43;51.17;101204.75;6293931;22;20650;-76
2023/07/15 00:37:58;;;;;;;10.82;4.50;;;;;;;24.35;51.40;101196.22;6299068;22;20413;-76
2023/07/15 00:40:24;;;;;;;8.70;3.72;;;;;;;24.35;51.38;101198.94;6302836;22;20338;-77
2023/07/15 00:42:52;;;;;;;11.33;4.37;;;;;;;24.33;51.46;101196.47;6302500;22;20738;-75
2023/07/15 00:45:17;;;;;;;11.13;4.50;;;;;;;24.34;51.54;101199.97;6304121;22;20357;-77
2023/07/15 00:48:08;;;;;;;12.63;4.50;;;;;;;24.41;51.06;101197.91;6276996;22;20385;-75
2023/07/15 00:50:38;;;;;;;11.10;4.30;;;;;;;24.46;51.06;101195.28;6305979;22;20362;-75
2023/07/15 00:53:04;;;;;;;12.88;4.38;;;;;;;24.35;51.36;101191.59;6306577;22;20337;-75
2023/07/15 00:55:30;;;;;;;9.90;4.20;;;;;;;24.29;51.44;101189.91;6305857;22;20353;-76
2023/07/15 00:57:57;;;;;;;9.85;4.47;;;;;;;24.23;51.78;101197.13;6304626;22;20440;-76
2023/07/15 01:00:23;;;;;;;11.25;4.53;;;;;;;24.21;51.78;101191.13;6277454;22;20738;-76
2023/07/15 01:02:49;;;;;;;10.73;4.45;;;;;;;24.10;52.02;101197.50;6304274;22;20330;-76
2023/07/15 01:05:16;;;;;;;9.38;4.47;;;;;;;24.00;52.41;101200.03;6304306;22;20369;-76
2023/07/15 01:07:42;;;;;;;10.80;4.55;;;;;;;23.95;52.80;101205.38;6304363;22;20865;-76
2023/07/15 01:10:08;;;;;;;9.63;4.40;;;;;;;23.83;52.83;101197.34;6303925;22;20362;-74
2023/07/15 01:12:33;;;;;;;11.60;4.77;;;;;;;23.88;53.02;101208.28;6305174;22;20367;-75
2023/07/15 01:14:59;;;;;;;11.05;4.70;;;;;;;23.80;52.95;101195.94;6306234;22;20409;-76
2023/07/15 01:17:24;;;;;;;9.93;4.50;;;;;;;23.68;53.52;101200.63;6306273;22;20329;-76
2023/07/15 01:19:50;;;;;;;10.50;4.35;;;;;;;23.59;54.02;101199.38;6279359;22;20333;-76
2023/07/15 01:22:17;;;;;;;9.37;4.47;;;;;;;23.52;53.88;101204.94;6306679;22;20923;-76
2023/07/15 01:24:42;;;;;;;10.43;4.50;;;;;;;23.45;54.36;101210.50;6305809;22;20453;-75
2023/07/15 01:27:09;;;;;;;9.40;4.40;;;;;;;23.44;54.19;101218.84;6306273;22;20381;-75
2023/07/15 01:29:34;;;;;;;8.35;4.22;;;;;;;23.42;54.40;101210.97;6306294;22;20770;-75
2023/07/15 01:32:00;;;;;;;12.18;4.82;;;;;;;23.32;54.94;101218.09;6306248;22;20349;-75
2023/07/15 01:34:25;;;;;;;11.43;4.40;;;;;;;23.35;54.54;101201.38;6306204;22;20659;-76
2023/07/15 01:36:51;;;;;;;11.50;4.27;;;;;;;23.22;55.24;101211.44;6279125;22;20338;-76
2023/07/15 01:39:17;;;;;;;7.93;4.00;;;;;;;23.09;55.51;101214.44;6278712;22;20764;-75
2023/07/15 01:41:45;;;;;;;9.83;4.50;;;;;;;23.13;55.07;101215.59;6306530;22;20345;-76
2023/07/15 01:44:12;;;;;;;9.27;4.30;;;;;;;23.16;55.31;101219.72;6305988;22;20431;-76
2023/07/15 01:46:40;;;;;;;11.15;4.82;;;;;;;23.02;55.50;101216.44;6306039;22;20334;-76
2023/07/15 01:49:07;;;;;;;7.80;4.32;;;;;;;22.89;55.82;101221.06;6306003;22;20336;-75
2023/07/15 01:51:35;;;;;;;10.32;4.80;;;;;;;22.90;55.94;101216.47;6305894;22;20356;-77
2023/07/15 01:54:00;;;;;;;8.32;4.30;;;;;;;22.93;55.87;101221.41;6278811;22;20655;-77
2023/07/15 01:56:26;;;;;;;10.13;4.35;;;;;;;22.94;55.90;101231.16;6305814;22;20345;-75
2023/07/15 01:58:52;;;;;;;9.70;4.30;;;;;;;22.83;56.23;101234.69;6306124;22;20422;-75
2023/07/15 02:01:17;;;;;;;13.38;5.03;;;;;;;22.74;56.46;101228.84;6306384;22;20425;-76
2023/07/15 02:03:43;;;;;;;8.10;4.70;;;;;;;22.80;56.37;101238.72;6278839;22;20340;-75
2023/07/15 02:06:08;;;;;;;8.50;4.37;;;;;;;22.83;56.06;101230.16;6278960;22;20342;-76
2023/07/15 02:08:33;;;;;;;9.52;4.20;;;;;;;22.93;55.92;101232.22;6305564;22;20340;-77
2023/07/15 02:10:59;;;;;;;10.47;4.50;;;;;;;22.89;55.78;101228.34;6278797;22;20349;-76
2023/07/15 02:13:25;;;;;;;10.37;4.37;;;;;;;22.90;55.96;101228.13;6305748;22;20361;-75
2023/07/15 02:15:51;;;;;;;10.10;4.37;;;;;;;22.89;55.87;101233.75;6305773;22;20421;-76
2023/07/15 02:18:16;;;;;;;8.70;4.20;;;;;;;22.95;55.50;101234.69;6305772;22;20710;-76
2023/07/15 02:20:42;;;;;;;9.13;4.50;;;;;;;22.98;55.71;101235.03;6305812;22;20334;-76
2023/07/15 02:23:09;;;;;;;7.65;4.30;;;;;;;23.02;55.33;101238.88;6305292;22;20330;-77
2023/07/15 02:25:34;;;;;;;12.32;4.47;;;;;;;23.15;54.89;101228.88;6305530;22;20361;-76
2023/07/15 02:28:00;;;;;;;8.87;4.60;;;;;;;23.21;54.83;101230.59;6278657;22;20361;-77
2023/07/15 02:30:26;;;;;;;10.37;4.07;;;;;;;23.26;54.72;101239.66;6305627;22;20852;-76
2023/07/15 02:32:54;;;;;;;9.40;4.50;;;;;;;23.18;54.60;101234.63;6306006;22;20366;-76
2023/07/15 02:35:20;;;;;;;9.40;4.18;;;;;;;23.13;55.00;101239.13;6305549;22;20705;-76
2023/07/15 02:37:48;;;;;;;9.05;3.80;;;;;;;23.16;54.95;101244.06;6305185;22;20775;-76
2023/07/15 02:40:14;;;;;;;7.82;3.92;;;;;;;23.08;55.03;101253.34;6278516;22;20365;-77
2023/07/15 02:42:40;;;;;;;8.55;4.00;;;;;;;23.12;55.11;101245.59;6305728;22;20698;-77
2023/07/15 02:45:08;;;;;;;9.10;4.18;;;;;;;23.17;54.78;101246.50;6305291;22;20361;-76
2023/07/15 02:47:34;;;;;;;9.30;4.18;;;;;;;23.08;55.01;101251.50;6305547;22;20338;-77
2023/07/15 02:50:05;;;;;;;5.43;3.50;;;;;;;22.95;55.54;101259.84;6305637;22;20330;-76
2023/07/15 02:52:32;;;;;;;8.52;3.92;;;;;;;22.94;55.57;101258.22;6305073;22;20801;-77
2023/07/15 02:54:59;;;;;;;8.63;4.00;;;;;;;23.00;55.17;101262.66;6305656;22;20387;-76
2023/07/15 02:57:25;;;;;;;7.70;3.72;;;;;;;23.08;55.03;101265.00;6305139;22;20396;-76
2023/07/15 02:59:50;;;;;;;6.37;3.77;;;;;;;23.04;55.13;101271.09;6305380;22;20338;-75
2023/07/15 03:02:16;;;;;;;7.45;3.90;;;;;;;23.02;55.43;101273.22;6305651;22;20341;-75
2023/07/15 03:04:42;;;;;;;5.93;3.70;;;;;;;22.91;55.67;101283.00;6305450;22;20369;-75
2023/07/15 03:07:13;;;;;;;6.05;3.70;;;;;;;22.88;55.76;101281.59;6305492;22;20433;-75
2023/07/15 03:09:38;;;;;;;6.30;3.88;;;;;;;22.84;55.79;101275.03;6305618;22;20387;-76
2023/07/15 03:12:04;;;;;;;8.07;3.97;;;;;;;22.99;55.67;101281.81;6305397;22;20421;-76
2023/07/15 03:14:30;;;;;;;8.65;3.85;;;;;;;22.87;55.82;101273.75;6305407;22;20617;-76
2023/07/15 03:16:55;;;;;;;8.60;3.63;;;;;;;22.86;55.68;101283.72;6305291;22;20820;-75
2023/07/15 03:19:20;;;;;;;7.17;4.10;;;;;;;22.78;55.90;101288.66;6304954;22;20721;-75
2023/07/15 03:21:46;;;;;;;8.77;3.80;;;;;;;22.76;56.31;101291.63;6305258;22;20341;-76
2023/07/15 03:24:11;;;;;;;7.63;3.85;;;;;;;22.80;55.95;101283.84;6305171;22;20373;-76
2023/07/15 03:26:37;;;;;;;6.90;3.60;;;;;;;22.81;56.01;101280.88;6305255;22;20352;-75
2023/07/15 03:29:06;;;;;;;7.60;3.93;;;;;;;22.87;55.78;101289.97;6278188;22;20755;-75
2023/07/15 03:31:32;;;;;;;8.50;3.60;;;;;;;22.79;56.04;101284.91;6305157;22;20663;-75
2023/07/15 03:33:57;;;;;;;6.90;3.97;;;;;;;22.81;56.29;101285.47;6304538;22;20337;-76
2023/07/15 03:36:24;;;;;;;6.17;3.63;;;;;;;22.73;56.14;101292.09;6304435;22;20421;-75
2023/07/15 03:38:50;;;;;;;5.63;3.47;;;;;;;;;;6277584;22;20342;-77
2023/07/15 03:41:15;;;;;;;7.65;3.83;;;;;;;22.83;56.38;101304.97;6302693;22;20737;-75
2023/07/15 03:43:41;;;;;;;6.03;3.53;;;;;;;22.76;56.29;101296.19;6272488;22;20338;-75
2023/07/15 03:46:07;;;;;;;7.43;3.60;;;;;;;22.73;56.55;101292.09;6299412;22;20357;-75
2023/07/15 03:48:32;;;;;;;5.90;3.30;;;;;;;22.69;56.64;101299.03;6299373;22;20346;-76
2023/07/15 03:50:58;;;;;;;7.67;3.63;;;;;;;22.65;56.90;101304.09;6299787;22;20679;-75
2023/07/15 03:53:23;;;;;;;8.33;3.97;;;;;;;22.56;56.98;101308.19;6299904;22;20341;-77
2023/07/15 03:55:49;;;;;;;8.65;3.92;;;;;;;22.69;56.74;101307.94;6300177;22;20649;-76
2023/07/15 03:58:14;;;;;;;7.97;4.10;;;;;;;22.86;56.40;101304.53;6298967;22;20870;-76
2023/07/15 04:00:40;;;;;;;8.97;4.03;;;;;;;22.79;56.59;101301.94;6299523;22;20778;-76
2023/07/15 04:03:07;;;;;;;8.27;3.43;;;;;;;22.89;56.46;101307.56;6299336;22;20429;-76
2023/07/15 04:05:32;;;;;;;8.15;3.78;;;;;;;23.04;56.19;101312.50;6298819;22;20759;-76
2023/07/15 04:07:58;;;;;;;9.65;3.70;;;;;;;23.12;55.87;101308.63;6301186;22;20344;-76
2023/07/15 04:10:23;;;;;;;9.53;3.93;;;;;;;23.14;56.02;101309.19;6301079;22;20338;-76
2023/07/15 04:12:49;;;;;;;6.90;3.97;;;;;;;23.18;55.90;101304.13;6303539;22;20484;-76
2023/07/15 04:15:14;;;;;;;6.20;4.00;;;;;;;23.18;55.94;101310.34;6304955;22;20338;-76
2023/07/15 04:17:40;;;;;;;10.17;4.67;;;;;;;23.08;56.37;101316.41;6304695;22;20361;-76
2023/07/15 04:20:11;;;;;;;12.48;3.90;;;;;;;23.24;56.35;101319.41;6306001;22;20516;-77
2023/07/15 04:22:37;;;;;;;7.30;3.90;;;;;;;23.31;56.24;101328.19;6307075;22;20338;-76
2023/07/15 04:25:03;;;;;;;7.13;4.20;;;;;;;23.48;55.99;101317.44;6280220;22;20372;-76
2023/07/15 04:27:29;;;;;;;9.23;4.13;;;;;;;23.54;55.98;101318.38;6305448;22;20342;-76
2023/07/15 04:29:54;;;;;;;6.90;4.28;;;;;;;23.77;55.46;101318.25;6278029;22;20740;-76
2023/07/15 04:32:20;;;;;;;8.17;4.40;;;;;;;23.78;55.63;101327.19;6304498;22;20349;-76
2023/07/15 04:34:50;;;;;;;6.72;4.45;;;;;;;23.92;55.61;101335.84;6304990;22;20366;-76
2023/07/15 04:37:17;;;;;;;8.93;4.45;;;;;;;24.00;55.53;101335.44;6304702;22;20754;-75
2023/07/15 04:39:42;;;;;;;10.32;4.82;;;;;;;24.10;55.42;101335.63;6304665;22;20447;-75
2023/07/15 04:42:08;;;;;;;8.37;5.00;;;;;;;24.23;55.13;101339.91;6278009;22;20345;-75
2023/07/15 04:44:33;;;;;;;10.40;4.72;;;;;;;24.18;55.46;101340.66;6304322;22;20389;-75
2023/07/15 04:46:59;;;;;;;10.23;5.17;;;;;;;24.18;55.76;101348.78;6303859;22;20763;-75
2023/07/15 04:49:24;;;;;;;9.00;5.20;;;;;;;24.35;55.64;101340.63;6304274;22;20338;-75
2023/07/15 04:51:50;;;;;;;8.20;4.73;;;;;;;24.37;55.81;101351.22;6277379;22;20342;-75
2023/07/15 04:54:15;;;;;;;9.77;5.25;;;;;;;24.32;56.08;101349.25;6304412;22;20391;-76
2023/07/15 04:56:41;;;;;;;11.10;5.30;;;;;;;24.48;55.69;101353.03;6304221;22;20905;-76
2023/07/15 04:59:07;;;;;;;8.63;5.25;;;;;;;24.78;55.22;101346.47;6304290;22;20417;-76
2023/07/15 05:01:33;;;;;;;6.88;5.25;;;;;;;24.96;54.82;101348.88;6304006;22;20341;-76
2023/07/15 05:04:01;;;;;;;8.03;5.00;;;;;;;25.03;54.58;101347.84;6304786;22;20329;-75
2023/07/15 05:06:30;;;;;;;10.52;5.40;;;;;;;24.87;54.92;101350.38;6304328;22;20333;-75
2023/07/15 05:08:55;;;;;;;11.60;5.72;;;;;;;25.14;54.29;101344.22;6304154;22;20330;-76
2023/07/15 05:11:22;;;;;;;11.45;5.53;;;;;;;25.29;54.04;101351.75;6304445;22;20608;-75
2023/07/15 05:13:47;;;;;;;10.32;5.55;;;;;;;25.20;54.10;101348.63;6304127;22;20679;-75
2023/07/15 05:16:14;;;;;;;9.57;5.53;;;;;;;25.33;53.91;101352.88;6303929;22;20778;-76
2023/07/15 05:18:40;;;;;;;11.73;5.80;;;;;;;25.57;53.51;101342.59;6304604;22;20425;-75
2023/07/15 05:21:06;;;;;;;11.95;5.68;;;;;;;25.66;53.04;101351.91;6304477;22;20330;-75
2023/07/15 05:23:31;;;;;;;11.80;5.70;;;;;;;25.68;53.23;101357.91;6277197;22;20360;-75
2023/07/15 05:26:01;;;;;;;12.77;6.10;;;;;;;25.70;53.22;101358.47;6304160;22;20361;-76
2023/07/15 05:28:32;;;;;;;9.63;5.20;;;;;;;25.76;53.19;101351.19;6304056;22;20417;-75
2023/07/15 05:30:58;;;;;;;11.68;5.65;;;;;;;25.90;52.92;101346.16;6304205;22;20346;-75
2023/07/15 05:33:24;;;;;;;8.43;5.53;;;;;;;25.96;52.77;101342.44;6277213;22;20342;-75
2023/07/15 05:35:50;;;;;;;11.07;5.37;;;;;;;26.08;52.38;101351.25;6305579;22;20336;-76
2023/07/15 05:38:16;;;;;;;11.20;5.32;;;;;;;26.18;52.25;101344.25;6304368;22;20341;-76
2023/07/15 05:40:42;;;;;;;7.00;5.15;;;;;;;26.28;51.78;101345.16;6277509;22;20421;-75
2023/07/15 05:43:08;;;;;;;11.90;5.65;;;;;;;26.35;52.00;101355.00;6304336;22;20334;-76
2023/07/15 05:45:34;;;;;;;9.82;5.47;;;;;;;26.60;51.29;101349.72;6303584;22;20358;-76
2023/07/15 05:47:59;;;;;;;8.37;5.30;;;;;;;26.32;51.48;101357.13;6304599;22;20747;-76
2023/07/15 05:50:25;;;;;;;10.10;5.27;;;;;;;26.28;51.70;101357.94;6304505;22;20334;-76
2023/07/15 05:52:52;;;;;;;11.20;5.67;;;;;;;26.39;51.43;101356.09;6304518;22;20415;-75
2023/07/15 05:55:19;;;;;;;9.82;5.57;;;;;;;26.43;50.87;101363.47;6304254;22;20345;-77
2023/07/15 05:57:44;;;;;;;9.40;4.78;;;;;;;26.20;51.12;101371.97;6304452;22;20382;-75
2023/07/15 06:00:11;;;;;;;10.60;5.40;;;;;;;26.23;51.58;101376.91;6305985;22;20663;-75
2023/07/15 06:02:38;;;;;;;12.00;5.60;;;;;;;26.06;51.67;101374.31;6278801;22;20338;-75
2023/07/15 06:05:04;;;;;;;15.27;6.45;;;;;;;26.22;51.86;101372.56;6306204;22;20810;-75
2023/07/15 06:07:30;;;;;;;9.23;5.45;;;;;;;26.52;51.17;101378.25;6306056;22;20399;-76
2023/07/15 06:09:55;;;;;;;10.13;4.60;;;;;;;26.48;50.36;101377.09;6279272;22;20350;-75
2023/07/15 06:12:21;;;;;;;8.53;4.90;;;;;;;26.43;50.70;101379.78;6306126;22;20338;-75
2023/07/15 06:14:46;;;;;;;9.13;5.00;;;;;;;26.79;50.38;101379.25;6306343;22;20421;-75
2023/07/15 06:17:12;;;;;;;10.70;5.32;;;;;;;26.98;49.80;101383.16;6306562;22;20429;-76
2023/07/15 06:19:37;;;;;;;9.63;5.10;;;;;;;27.07;49.39;101378.84;6306336;22;20636;-78
2023/07/15 06:22:03;;;;;;;8.23;5.10;;;;;;;27.36;49.03;101383.09;6306026;22;20349;-75
2023/07/15 06:24:28;;;;;;;13.43;5.55;;;;;;;27.70;47.98;101382.66;6305553;22;20372;-75
2023/07/15 06:26:54;;;;;;;10.63;5.60;;;;;;;27.56;48.16;101376.91;6306159;22;20924;-77
2023/07/15 06:29:19;;;;;;;10.33;5.90;;;;;;;27.43;48.66;101375.50;6305831;22;20334;-77
2023/07/15 06:31:45;;;;;;;7.90;5.13;;;;;;;27.35;48.69;101384.16;6305807;22;20411;-76
2023/07/15 06:34:10;;;;;;;11.33;5.63;;;;;;;27.55;48.27;101376.09;6305124;22;20338;-76
2023/07/15 06:36:36;;;;;;;11.47;5.53;;;;;;;27.73;48.12;101379.38;6305453;22;20651;-76
2023/07/15 06:39:02;;;;;;;9.60;5.38;;;;;;;27.71;48.31;101376.91;6306106;22;20380;-76
2023/07/15 06:41:28;;;;;;;10.05;5.28;;;;;;;27.75;47.78;101371.75;6305749;22;20334;-76
2023/07/15 06:43:53;;;;;;;10.33;5.57;;;;;;;28.02;47.27;101369.66;6305599;22;20467;-76
2023/07/15 06:46:19;;;;;;;8.57;4.77;;;;;;;28.07;47.42;101377.00;6305502;22;20345;-76
2023/07/15 06:48:45;;;;;;;12.10;5.20;;;;;;;27.98;47.14;101374.03;6306079;22;20380;-76
2023/07/15 06:51:14;;;;;;;9.75;5.15;;;;;;;27.98;46.94;101373.19;6305838;22;20341;-76
2023/07/15 06:53:40;;;;;;;11.40;5.40;;;;;;;28.07;46.96;101377.00;6305798;22;20659;-76
2023/07/15 06:56:05;;;;;;;11.27;5.70;;;;;;;28.13;47.04;101370.47;6306055;22;20340;-76
2023/07/15 06:58:31;;;;;;;9.37;5.53;;;;;;;28.14;47.20;101371.28;6304674;22;20725;-76
2023/07/15 07:00:56;;;;;;;9.70;4.93;;;;;;;27.83;47.37;101380.22;6306278;22;20338;-76
2023/07/15 07:03:21;;;;;;;10.67;5.40;;;;;;;27.79;47.32;101375.59;6305789;22;20341;-76
2023/07/15 07:05:47;;;;;;;8.98;5.50;;;;;;;27.77;47.62;101380.50;6278260;22;20664;-76
2023/07/15 07:08:12;;;;;;;9.82;5.20;;;;;;;27.94;47.34;101378.34;6304955;22;20425;-76
2023/07/15 07:10:38;;;;;;;12.53;5.50;;;;;;;28.02;46.94;101380.56;6302360;22;20503;-76
2023/07/15 07:13:04;;;;;;;8.97;5.13;;;;;;;28.41;46.73;101380.03;6299477;22;20342;-76
2023/07/15 07:15:30;;;;;;;9.40;5.50;;;;;;;28.58;45.92;101384.41;6300633;22;20341;-75
2023/07/15 07:17:57;;;;;;;10.05;5.80;;;;;;;28.38;46.51;101374.31;6299681;22;20333;-75
2023/07/15 07:20:22;;;;;;;10.20;5.68;;;;;;;28.79;45.68;101363.34;6272757;22;20407;-75
2023/07/15 07:22:48;;;;;;;10.90;5.65;;;;;;;29.07;45.42;101361.06;6299605;22;20333;-75
2023/07/15 07:25:13;;;;;;;9.77;5.72;;;;;;;28.90;45.87;101362.22;6299393;22;20369;-76
2023/07/15 07:27:39;;;;;;;9.20;5.45;;;;;;;29.01;45.79;101357.56;6300310;22;20342;-75
2023/07/15 07:30:05;;;;;;;11.40;6.23;;;;;;;29.18;45.66;101359.97;6302615;22;20333;-76
2023/07/15 07:32:30;;;;;;;15.20;6.18;;;;;;;28.95;45.49;101364.09;6305587;22;20713;-76
2023/07/15 07:34:58;;;;;;;9.07;5.80;;;;;;;28.77;45.59;101355.44;6304902;22;20330;-77
2023/07/15 07:37:23;;;;;;;9.70;6.07;;;;;;;28.96;45.32;101363.03;6306379;22;20409;-76
2023/07/15 07:39:49;;;;;;;9.57;5.83;;;;;;;29.07;45.09;101363.81;6305840;22;20423;-75
2023/07/15 07:42:15;;;;;;;9.60;6.30;;;;;;;29.05;45.07;101364.09;6303321;22;20330;-75
2023/07/15 07:44:40;;;;;;;12.52;6.28;;;;;;;29.16;44.70;101352.03;6303132;22;20361;-76
2023/07/15 07:47:06;;;;;;;11.40;5.97;;;;;;;29.35;44.77;101357.72;6304079;22;20341;-76
2023/07/15 07:49:31;;;;;;;11.73;5.50;;;;;;;29.38;44.14;101356.31;6306289;22;20783;-75
2023/07/15 07:51:57;;;;;;;11.40;6.00;;;;;;;29.55;44.23;101348.56;6306119;22;20417;-76
2023/07/15 07:54:22;;;;;;;9.87;5.90;;;;;;;29.86;43.27;101356.59;6306072;22;20326;-76
2023/07/15 07:56:48;;;;;;;11.52;5.97;;;;;;;29.98;43.07;101360.88;6305403;22;20362;-75
2023/07/15 07:59:13;;;;;;;9.20;5.70;;;;;;;30.03;42.61;101364.38;6305974;22;20342;-75
2023/07/15 08:01:39;;;;;;;10.43;5.40;;;;;;;29.83;42.73;101356.34;6278527;22;20713;-75
2023/07/15 08:04:04;;;;;;;13.43;5.90;;;;;;;29.95;42.61;101365.00;6278465;22;20801;-76
2023/07/15 08:06:30;;;;;;;10.37;5.30;;;;;;;29.88;42.45;101354.38;6305901;22;20349;-75
2023/07/15 08:08:55;;;;;;;10.77;5.30;;;;;;;29.87;42.59;101362.88;6305113;22;20643;-76
2023/07/15 08:11:21;;;;;;;10.75;5.15;;;;;;;29.82;42.42;101365.63;6304695;22;20337;-76
2023/07/15 08:13:47;;;;;;;9.80;4.97;;;;;;;29.69;42.79;101353.41;6305182;22;20455;-76
2023/07/15 08:16:32;;;;;;;8.30;5.37;;;;;;;30.14;42.29;101354.19;6312347;22;20345;-76
2023/07/15 08:18:58;;;;;;;11.77;5.60;;;;;;;30.52;41.47;101356.34;6305528;22;20820;-77
2023/07/15 08:21:23;;;;;;;9.33;5.40;;;;;;;30.65;41.15;101361.94;6305322;22;20369;-77
2023/07/15 08:23:49;;;;;;;8.60;5.03;;;;;;;30.80;40.94;101358.22;6305874;22;20333;-76
2023/07/15 08:26:14;;;;;;;10.43;5.20;;;;;;;30.84;41.43;101359.25;6308662;22;20366;-75
2023/07/15 08:28:40;;;;;;;9.83;5.47;;;;;;;31.05;40.66;101348.91;6314000;22;20357;-75
2023/07/15 08:31:05;;;;;;;12.00;5.73;;;;;;;31.27;40.56;101355.75;6315045;22;20338;-76
2023/07/15 08:33:31;;;;;;;11.63;5.70;;;;;;;31.37;40.42;101360.31;6315326;22;20370;-75
2023/07/15 08:35:56;;;;;;;8.33;5.10;;;;;;;31.10;40.52;101349.94;6308186;22;20334;-75
2023/07/15 08:38:22;;;;;;;11.30;5.50;;;;;;;31.04;40.41;101351.94;6305335;22;20659;-75
2023/07/15 08:40:50;;;;;;;8.90;5.27;;;;;;;31.14;40.46;101346.34;6278695;22;20440;-76
2023/07/15 08:43:16;;;;;;;8.75;4.78;;;;;;;31.21;40.20;101344.06;6306153;22;20352;-75
2023/07/15 08:45:42;;;;;;;9.67;4.73;;;;;;;31.37;40.20;101344.66;6279659;22;20366;-77
2023/07/15 08:48:08;;;;;;;8.53;5.27;;;;;;;31.39;39.85;101342.44;6307897;22;20356;-76
2023/07/15 08:50:34;;;;;;;7.53;5.00;;;;;;;31.39;39.50;101341.63;6306349;22;20671;-75
2023/07/15 08:53:01;;;;;;;10.75;5.30;;;;;;;31.52;39.71;101340.13;6305244;22;20338;-76
2023/07/15 08:55:28;;;;;;;12.33;5.40;;;;;;;31.80;39.71;101330.06;6305206;22;20338;-75
2023/07/15 08:57:56;;;;;;;10.55;5.15;;;;;;;32.00;39.29;101345.41;6306017;22;20487;-76
2023/07/15 09:00:22;;;;;;;11.40;4.80;;;;;;;32.14;39.11;101346.28;6306208;22;20338;-76
2023/07/15 09:02:50;;;;;;;9.27;5.13;;;;;;;32.44;38.38;101337.81;6305901;22;20362;-75
2023/07/15 09:05:15;;;;;;;10.35;4.82;;;;;;;32.61;38.46;101346.28;6305770;22;20433;-76
2023/07/15 09:07:57;;;;;;;6.10;4.73;;;;;;;32.42;38.19;101351.81;6305028;22;20342;-75
2023/07/15 09:10:24;;;;;;;7.75;5.03;;;;;;;32.47;38.10;101342.69;6278400;22;20335;-76
2023/07/15 09:12:55;;;;;;;11.88;5.07;;;;;;;32.66;38.05;101342.63;6305415;22;20334;-76
2023/07/15 09:15:21;;;;;;;9.63;4.90;;;;;;;32.81;38.29;101333.25;6306048;22;20340;-75
2023/07/15 09:17:57;;;;;;;10.45;5.18;;;;;;;32.88;38.05;101334.50;6305996;22;20341;-76
2023/07/15 09:20:25;;;;;;;9.07;4.70;;;;;;;32.91;37.63;101333.06;6305690;22;20334;-76
2023/07/15 09:23:01;;;;;;;8.35;4.82;;;;;;;32.91;37.68;101338.56;6304939;22;20425;-76
2023/07/15 09:25:27;;;;;;;13.55;5.35;;;;;;;33.07;37.64;101333.56;6305358;22;20385;-76
2023/07/15 09:27:54;;;;;;;7.77;4.50;;;;;;;33.10;37.58;101342.00;6305199;22;20360;-75
2023/07/15 09:30:20;;;;;;;10.23;5.03;;;;;;;33.25;37.22;101329.88;6304986;22;20337;-76
2023/07/15 09:32:46;;;;;;;7.63;4.53;;;;;;;33.32;37.28;101334.97;6279180;22;20341;-75
2023/07/15 09:35:13;;;;;;;8.80;4.50;;;;;;;33.33;36.89;101331.91;6307472;22;20647;-76
2023/07/15 09:37:39;;;;;;;13.18;5.30;;;;;;;33.40;36.83;101334.22;6306783;22;20709;-76
2023/07/15 09:40:10;;;;;;;9.88;5.13;;;;;;;33.53;36.63;101327.06;6306775;22;20771;-76
2023/07/15 09:42:55;;;;;;;13.63;4.82;;;;;;;33.66;35.77;101331.72;6279844;22;20346;-77
2023/07/15 09:45:39;;;;;;;6.60;4.43;;;;;;;33.74;35.67;101318.34;6306885;22;20734;-76
2023/07/15 09:48:13;;;;;;;6.90;4.43;;;;;;;33.75;36.04;101314.50;6306771;22;20861;-76
2023/07/15 09:50:40;;;;;;;6.47;4.22;;;;;;;33.75;35.83;101312.53;6306903;22;20329;-75
2023/07/15 09:53:07;;;;;;;8.20;4.47;;;;;;;33.81;35.47;101315.97;6306552;22;20333;-77
2023/07/15 09:55:36;;;;;;;10.30;4.43;;;;;;;33.81;35.32;101313.22;6306693;22;20759;-75
2023/07/15 09:58:12;;;;;;;7.55;4.28;;;;;;;33.95;35.45;101310.41;6306566;22;20428;-75
2023/07/15 10:00:42;;;;;;;8.30;4.60;;;;;;;33.94;35.42;101314.28;6280659;22;20346;-75
2023/07/15 10:03:16;;;;;;;6.90;4.50;;;;;;;33.97;35.05;101308.97;6280697;22;20342;-75
2023/07/15 10:05:44;;;;;;;10.77;4.70;;;;;;;34.03;34.64;101304.13;6306754;22;20392;-75
2023/07/15 10:08:09;;;;;;;10.48;4.70;;;;;;;34.09;34.78;101309.19;6307933;22;20399;-76
2023/07/15 10:10:35;;;;;;;7.83;4.20;;;;;;;34.07;34.37;101305.16;6307107;22;20337;-76
2023/07/15 10:13:01;;;;;;;6.70;3.80;;;;;;;34.03;34.58;101296.72;6281214;22;20491;-76
2023/07/15 10:15:27;;;;;;;8.10;4.22;;;;;;;34.18;34.40;101297.47;6308127;22;20334;-76
2023/07/15 10:17:54;;;;;;;7.80;4.03;;;;;;;34.25;33.73;101304.13;6308243;22;20409;-76
2023/07/15 10:20:22;;;;;;;6.70;3.40;;;;;;;34.35;33.79;101289.25;6279533;22;20346;-76
2023/07/15 10:22:49;;;;;;;7.38;3.95;;;;;;;34.45;33.43;101288.19;6307413;22;20407;-77
2023/07/15 10:25:15;;;;;;;10.90;4.15;;;;;;;34.51;33.58;101289.66;6306644;22;20358;-75
2023/07/15 10:27:41;;;;;;;9.23;4.17;;;;;;;34.54;33.60;101286.28;6306859;22;20341;-75
2023/07/15 10:30:18;;;;;;;7.90;3.93;;;;;;;34.61;33.47;101283.88;6306708;22;20348;-75
2023/07/15 10:33:05;;;;;;;5.95;3.80;;;;;;;34.61;32.88;101283.88;6308388;22;20958;-76
2023/07/15 10:35:32;;;;;;;9.10;3.72;;;;;;;34.65;33.59;101286.78;6278749;22;20348;-76
2023/07/15 10:38:02;;;;;;;8.70;4.13;;;;;;;34.72;32.85;101289.91;6305704;22;20402;-75
2023/07/15 10:40:49;;;;;;;9.63;3.90;;;;;;;34.76;32.73;101285.38;6306300;22;20790;-75
2023/07/15 10:43:23;;;;;;;7.68;3.60;;;;;;;34.77;32.68;101281.50;6305933;22;20346;-76
2023/07/15 10:45:53;;;;;;;7.22;3.83;;;;;;;34.90;32.88;101276.16;6305785;22;20451;-77
2023/07/15 10:48:20;;;;;;;9.55;4.10;;;;;;;34.95;32.43;101268.59;6306286;22;20724;-76
2023/07/15 10:50:53;;;;;;;7.87;3.60;;;;;;;35.03;32.51;101266.97;6278458;22;20471;-76
2023/07/15 10:53:22;;;;;;;8.23;3.70;;;;;;;35.13;32.25;101261.13;6305789;22;20402;-76
2023/07/15 10:56:01;;;;;;;8.48;3.70;;;;;;;35.29;31.89;101263.41;6306118;22;20356;-76
2023/07/15 10:58:29;;;;;;;7.88;3.90;;;;;;;35.16;31.24;101268.72;6305384;22;20868;-77
2023/07/15 11:01:03;;;;;;;5.53;3.60;;;;;;;35.13;31.42;101258.38;6303890;22;20338;-76
2023/07/15 11:03:31;;;;;;;4.78;3.30;;;;;;;35.02;31.55;101251.53;6302034;22;20924;-76
2023/07/15 11:06:01;;;;;;;7.72;4.00;;;;;;;35.09;31.41;101248.31;6303277;22;20364;-75
2023/07/15 11:08:27;;;;;;;10.15;3.83;;;;;;;35.22;31.32;101247.38;6303966;22;20367;-75
2023/07/15 11:11:01;;;;;;;8.48;3.50;;;;;;;35.23;31.04;101251.75;6305507;22;20337;-74
2023/07/15 11:13:28;;;;;;;10.50;3.80;;;;;;;35.11;31.09;101240.53;6303829;22;20334;-76
2023/07/15 11:15:54;;;;;;;7.13;3.50;;;;;;;35.12;30.93;101242.16;6304538;22;20344;-75
2023/07/15 11:18:22;;;;;;;9.32;3.50;;;;;;;35.13;30.96;101241.03;6305118;22;20413;-75
2023/07/15 11:20:50;;;;;;;10.00;3.58;;;;;;;35.18;30.92;101238.09;6305799;22;20334;-75